Time;durP1;ratioP1;P1;durP2;ratioP2;P2;SDS_P1;SDS_P2;PMS_P1;PMS_P2;Temp;Humidity;BMP_temperature;BMP_pressure;BME280_temperature;BME280_humidity;BME280_pressure;Samples;Min_cycle;Max_cycle;Signal;HPM_P1;HPM_P2
2022/03/11 13:46:39;;;;;;;11.90;7.40;;;17.10;52.80;;;;;;2292357;62;30384;-77
2022/03/11 13:49:08;;;;;;;12.43;8.20;;;17.20;56.20;;;;;;2273610;62;30963;-78
2022/03/11 13:51:54;;;;;;;8.68;7.10;;;17.30;56.50;;;;;;2276519;62;30348;-79
2022/03/11 13:54:26;;;;;;;8.38;6.97;;;17.40;56.40;;;;;;2290935;62;30108;-80
2022/03/11 13:56:59;;;;;;;10.98;7.50;;;17.50;57.20;;;;;;2291359;62;30562;-80
2022/03/11 13:59:32;;;;;;;8.57;6.75;;;17.70;56.50;;;;;;2283932;62;30281;-79
2022/03/11 14:02:30;;;;;;;8.73;7.43;;;17.90;57.20;;;;;;2291002;62;30004;-78
2022/03/11 14:05:27;;;;;;;9.23;6.78;;;18.60;53.10;;;;;;2272687;62;30231;-83
2022/03/11 14:08:01;;;;;;;10.10;7.38;;;19.90;50.80;;;;;;2284394;62;30090;-88
2022/03/11 14:10:28;;;;;;;9.00;7.15;;;20.50;51.10;;;;;;2283767;62;30253;-80
2022/03/11 14:13:14;;;;;;;36.65;8.25;;;20.20;51.80;;;;;;2284263;62;30223;-79
2022/03/11 14:15:50;;;;;;;7.25;6.38;;;19.80;49.90;;;;;;2282809;62;30551;-81
2022/03/11 14:18:18;;;;;;;7.70;6.50;;;19.50;52.10;;;;;;2282991;62;30278;-79
2022/03/11 14:20:44;;;;;;;7.75;7.03;;;19.20;53.20;;;;;;2268889;62;30149;-80
2022/03/11 14:23:10;;;;;;;9.50;7.50;;;19.00;52.90;;;;;;2282526;62;30257;-82
2022/03/11 14:25:36;;;;;;;7.00;6.40;;;18.90;53.60;;;;;;2268808;62;30946;-81
2022/03/11 14:28:06;;;;;;;10.48;6.82;;;18.80;54.00;;;;;;2268687;62;30151;-82
2022/03/11 14:30:32;;;;;;;10.35;6.95;;;18.70;52.80;;;;;;2268485;62;30016;-79
2022/03/11 14:32:58;;;;;;;7.43;6.50;;;18.50;53.80;;;;;;2282796;62;30222;-79
2022/03/11 14:35:24;;;;;;;7.85;6.22;;;18.40;53.60;;;;;;2283673;62;31093;-78
2022/03/11 14:37:52;;;;;;;7.38;6.28;;;18.30;53.70;;;;;;2281638;62;30186;-80
2022/03/11 14:40:18;;;;;;;7.60;6.53;;;18.30;52.90;;;;;;2290941;62;30196;-79
2022/03/11 14:42:45;;;;;;;6.25;5.70;;;18.10;53.30;;;;;;2288913;62;30447;-79
2022/03/11 14:45:11;;;;;;;9.27;6.35;;;18.00;53.50;;;;;;2282132;62;30150;-78
2022/03/11 14:47:40;;;;;;;6.78;6.07;;;18.00;53.30;;;;;;2275252;62;30467;-78
2022/03/11 14:50:10;;;;;;;6.70;5.60;;;17.90;52.90;;;;;;2268750;62;30267;-77
2022/03/11 14:52:36;;;;;;;6.90;5.38;;;17.80;52.90;;;;;;2275312;62;30421;-78
2022/03/11 14:55:06;;;;;;;6.25;5.50;;;17.80;53.10;;;;;;2275592;62;30787;-79
2022/03/11 14:57:32;;;;;;;6.78;5.85;;;17.70;53.10;;;;;;2270931;62;31896;-78
2022/03/11 15:00:00;;;;;;;6.25;5.65;;;17.70;53.10;;;;;;2262702;62;30290;-79
2022/03/11 15:02:26;;;;;;;7.18;5.90;;;17.70;52.80;;;;;;2277142;62;30227;-77
2022/03/11 15:04:53;;;;;;;7.88;5.72;;;17.60;52.90;;;;;;2276600;62;30216;-74
2022/03/11 15:07:19;;;;;;;8.45;6.22;;;17.60;52.80;;;;;;2276819;62;30124;-77
2022/03/11 15:09:45;;;;;;;6.40;5.65;;;17.50;52.60;;;;;;2269845;62;30170;-78
2022/03/11 15:12:10;;;;;;;7.72;5.65;;;17.50;52.60;;;;;;2279224;62;30081;-79
2022/03/11 15:14:36;;;;;;;6.97;5.85;;;17.50;52.70;;;;;;2270969;62;30220;-77
2022/03/11 15:17:02;;;;;;;5.53;5.03;;;17.40;52.40;;;;;;2285326;62;30007;-76
2022/03/11 15:19:28;;;;;;;6.22;5.22;;;17.40;52.60;;;;;;2275751;62;30059;-77
2022/03/11 15:21:54;;;;;;;5.97;5.35;;;17.40;52.70;;;;;;2269717;62;30198;-77
2022/03/11 15:24:20;;;;;;;9.73;5.32;;;17.40;52.40;;;;;;2277384;62;30207;-77
2022/03/11 15:26:47;;;;;;;5.57;4.93;;;17.40;52.30;;;;;;2263867;62;30197;-75
2022/03/11 15:29:13;;;;;;;6.07;5.05;;;17.30;52.10;;;;;;2277115;62;30327;-77
2022/03/11 15:31:41;;;;;;;5.32;4.82;;;17.30;52.30;;;;;;2269716;62;30285;-77
2022/03/11 15:34:07;;;;;;;5.45;4.95;;;17.30;52.20;;;;;;2269456;62;32091;-75
2022/03/11 15:36:34;;;;;;;6.18;5.50;;;17.20;52.20;;;;;;2276775;62;31150;-77
2022/03/11 15:39:03;;;;;;;8.82;5.53;;;17.20;52.00;;;;;;2276559;62;30110;-76
2022/03/11 15:41:32;;;;;;;5.38;4.80;;;17.20;52.10;;;;;;2276436;62;30259;-75
2022/03/11 15:44:00;;;;;;;6.35;5.25;;;17.20;52.40;;;;;;2269627;62;31077;-76
2022/03/11 15:46:27;;;;;;;5.97;5.10;;;17.20;51.80;;;;;;2276901;62;32245;-77
2022/03/11 15:48:53;;;;;;;5.95;5.05;;;17.20;51.50;;;;;;2276852;62;29931;-76
2022/03/11 15:51:21;;;;;;;4.95;4.50;;;17.20;51.50;;;;;;2269600;62;30271;-80
2022/03/11 15:53:47;;;;;;;4.82;4.38;;;17.10;51.30;;;;;;2277098;62;31033;-79
2022/03/11 15:56:13;;;;;;;4.82;4.07;;;17.20;51.40;;;;;;2276733;62;30050;-79
2022/03/11 15:58:39;;;;;;;5.68;4.15;;;17.40;51.40;;;;;;2277044;62;30274;-79
2022/03/11 16:01:05;;;;;;;6.65;4.18;;;18.00;50.80;;;;;;2269316;62;30417;-79
2022/03/11 16:03:31;;;;;;;5.25;4.28;;;18.50;49.90;;;;;;2269650;62;30290;-79
2022/03/11 16:05:56;;;;;;;10.95;4.45;;;19.00;49.10;;;;;;2276950;62;30340;-74
2022/03/11 16:08:22;;;;;;;5.78;4.28;;;19.30;48.70;;;;;;2281003;62;29869;-71
2022/03/11 16:10:48;;;;;;;7.18;4.43;;;19.60;48.70;;;;;;2285044;62;29926;-73
2022/03/11 16:13:14;;;;;;;5.95;4.85;;;19.60;48.40;;;;;;2275485;62;30146;-73
2022/03/11 16:15:41;;;;;;;6.78;4.28;;;19.70;48.40;;;;;;2269201;62;30104;-73
2022/03/11 16:18:07;;;;;;;7.35;4.20;;;19.70;48.30;;;;;;2269561;62;30088;-73
2022/03/11 16:20:33;;;;;;;5.47;4.30;;;19.60;47.90;;;;;;2269291;62;30252;-73
2022/03/11 16:22:59;;;;;;;4.85;4.13;;;19.60;47.90;;;;;;2276520;62;30128;-73
2022/03/11 16:25:26;;;;;;;5.05;3.72;;;19.40;47.80;;;;;;2276675;62;30630;-73
2022/03/11 16:27:51;;;;;;;4.43;4.03;;;19.10;48.20;;;;;;2270967;62;30058;-72
2022/03/11 16:30:17;;;;;;;5.35;4.18;;;18.80;48.80;;;;;;2278717;62;30094;-73
2022/03/11 16:32:43;;;;;;;9.23;4.07;;;18.60;49.20;;;;;;2269156;62;30030;-72
2022/03/11 16:35:09;;;;;;;4.47;4.07;;;18.30;50.00;;;;;;2276605;62;29963;-73
2022/03/11 16:37:35;;;;;;;6.95;5.07;;;18.10;49.80;;;;;;2276351;62;30206;-71
2022/03/11 16:40:01;;;;;;;7.15;4.55;;;18.00;48.80;;;;;;2276579;62;30100;-75
2022/03/11 16:42:27;;;;;;;5.60;4.57;;;17.80;48.40;;;;;;2269175;62;32027;-78
2022/03/11 16:44:53;;;;;;;4.82;4.28;;;17.70;48.50;;;;;;2276126;62;30571;-76
2022/03/11 16:47:19;;;;;;;4.63;4.18;;;17.50;48.30;;;;;;2283093;62;30049;-81
2022/03/11 16:49:45;;;;;;;10.65;4.70;;;17.40;49.00;;;;;;2281576;62;30358;-78
2022/03/11 16:52:15;;;;;;;5.25;4.45;;;17.40;49.00;;;;;;2282010;62;30101;-78
2022/03/11 16:54:41;;;;;;;4.57;3.90;;;17.30;49.40;;;;;;2277318;62;30443;-78
2022/03/11 16:57:07;;;;;;;4.10;3.75;;;17.20;49.60;;;;;;2276515;62;30590;-78
2022/03/11 16:59:33;;;;;;;6.38;4.50;;;17.20;49.70;;;;;;2277158;62;30394;-79
2022/03/11 17:02:00;;;;;;;6.43;3.85;;;17.10;49.80;;;;;;2277365;62;30793;-78
2022/03/11 17:04:25;;;;;;;4.97;3.95;;;17.10;49.90;;;;;;2277069;62;31566;-77
2022/03/11 17:06:51;;;;;;;6.05;3.90;;;17.00;49.80;;;;;;2278369;62;30155;-75
2022/03/11 17:09:17;;;;;;;4.50;3.40;;;17.00;49.90;;;;;;2277808;62;30139;-73
2022/03/11 17:11:49;;;;;;;7.55;3.95;;;17.00;50.00;;;;;;2268765;62;30126;-73
2022/03/11 17:14:15;;;;;;;6.88;3.95;;;16.90;50.20;;;;;;2273757;62;31328;-73
2022/03/11 17:16:41;;;;;;;3.70;3.40;;;16.90;50.60;;;;;;2274622;62;29998;-74
2022/03/11 17:19:07;;;;;;;5.38;3.53;;;16.80;50.60;;;;;;2277043;62;30172;-74
2022/03/11 17:21:33;;;;;;;4.72;3.92;;;16.80;50.60;;;;;;2260724;62;30239;-74
2022/03/11 17:24:00;;;;;;;6.70;3.65;;;16.80;51.00;;;;;;2274896;62;30028;-75
2022/03/11 17:26:26;;;;;;;3.50;3.20;;;16.80;51.00;;;;;;2260975;62;30192;-76
2022/03/11 17:28:52;;;;;;;3.72;3.25;;;16.70;51.20;;;;;;2274863;62;30058;-74
2022/03/11 17:31:18;;;;;;;4.35;3.38;;;16.70;51.30;;;;;;2271217;62;30325;-74
2022/03/11 17:33:44;;;;;;;4.38;3.65;;;16.70;51.50;;;;;;2276365;62;30157;-75
2022/03/11 17:36:13;;;;;;;8.15;4.05;;;16.70;51.60;;;;;;2267424;62;30358;-74
2022/03/11 17:38:40;;;;;;;7.88;3.60;;;16.70;51.80;;;;;;2280845;62;30079;-74
2022/03/11 17:41:07;;;;;;;3.42;3.13;;;16.70;51.90;;;;;;2271622;62;30169;-75
2022/03/11 17:43:33;;;;;;;5.47;3.03;;;16.60;51.80;;;;;;2283282;62;30344;-73
2022/03/11 17:46:00;;;;;;;7.53;3.13;;;16.60;52.10;;;;;;2269030;62;30086;-74
2022/03/11 17:48:25;;;;;;;5.20;3.28;;;16.60;52.20;;;;;;2270378;62;30131;-73
2022/03/11 17:50:52;;;;;;;7.05;3.00;;;16.50;52.50;;;;;;2275770;62;30136;-75
2022/03/11 17:53:20;;;;;;;4.93;3.70;;;16.50;52.40;;;;;;2283004;62;30773;-76
2022/03/11 17:55:46;;;;;;;7.93;3.55;;;16.60;52.50;;;;;;2282937;62;30203;-73
2022/03/11 17:58:13;;;;;;;3.92;3.35;;;16.50;52.70;;;;;;2269158;62;30097;-74
2022/03/11 18:00:42;;;;;;;3.78;3.05;;;16.50;52.80;;;;;;2268447;62;31709;-73
2022/03/11 18:03:09;;;;;;;4.30;3.22;;;16.50;52.90;;;;;;2274474;62;30080;-73
2022/03/11 18:05:35;;;;;;;4.72;3.35;;;16.50;53.10;;;;;;2274811;62;30156;-73
2022/03/11 18:08:01;;;;;;;4.75;3.80;;;16.50;53.10;;;;;;2267237;62;30028;-74
2022/03/11 18:10:27;;;;;;;5.18;4.13;;;16.40;53.10;;;;;;2275183;62;30279;-73
2022/03/11 18:12:53;;;;;;;4.70;3.40;;;16.40;53.20;;;;;;2275027;62;30039;-71
2022/03/11 18:15:19;;;;;;;6.68;4.80;;;16.40;53.30;;;;;;2282638;62;30154;-74
2022/03/11 18:17:49;;;;;;;8.63;4.75;;;16.40;53.20;;;;;;2268047;62;30740;-74
2022/03/11 18:20:15;;;;;;;8.23;4.60;;;16.30;53.50;;;;;;2267628;62;30231;-74
2022/03/11 18:22:41;;;;;;;8.02;4.00;;;16.30;53.40;;;;;;2266871;62;30899;-73
2022/03/11 18:25:08;;;;;;;5.88;4.40;;;16.30;53.50;;;;;;2274351;62;30332;-73
2022/03/11 18:27:34;;;;;;;6.70;4.40;;;16.30;53.70;;;;;;2273393;62;30416;-74
2022/03/11 18:30:01;;;;;;;4.50;4.00;;;16.30;53.80;;;;;;2275135;62;32905;-72
2022/03/11 18:32:27;;;;;;;5.38;3.95;;;16.40;54.00;;;;;;2279824;62;30238;-73
2022/03/11 18:34:53;;;;;;;5.38;4.10;;;16.30;53.90;;;;;;2275214;62;30198;-73
2022/03/11 18:37:19;;;;;;;4.65;3.88;;;16.30;54.00;;;;;;2275914;62;30217;-72
2022/03/11 18:39:45;;;;;;;6.15;4.40;;;16.40;54.20;;;;;;2285380;62;30152;-72
2022/03/11 18:42:11;;;;;;;6.10;4.05;;;16.40;54.40;;;;;;2285525;62;30250;-72
2022/03/11 18:44:37;;;;;;;4.65;4.00;;;16.40;54.50;;;;;;2284878;62;30126;-74
2022/03/11 18:47:03;;;;;;;4.00;3.60;;;16.50;54.70;;;;;;2285759;62;30237;-73
2022/03/11 18:49:29;;;;;;;7.03;3.80;;;16.50;54.70;;;;;;2285371;62;30233;-73
2022/03/11 18:51:59;;;;;;;3.83;3.42;;;16.60;54.80;;;;;;2285310;62;30078;-72
2022/03/11 18:54:27;;;;;;;4.30;3.30;;;16.80;55.10;;;;;;2277788;62;30135;-71
2022/03/11 18:56:53;;;;;;;2.97;2.78;;;16.90;55.10;;;;;;2271869;62;30327;-71
2022/03/11 18:59:18;;;;;;;5.53;3.40;;;16.90;55.00;;;;;;2269858;62;30886;-70
2022/03/11 19:01:44;;;;;;;3.72;2.78;;;17.10;55.30;;;;;;2263012;62;30495;-71
2022/03/11 19:04:10;;;;;;;3.53;3.00;;;17.10;55.00;;;;;;2276872;62;30218;-71
2022/03/11 19:06:36;;;;;;;3.70;2.53;;;17.20;54.90;;;;;;2276802;62;31252;-72
2022/03/11 19:09:04;;;;;;;5.00;2.40;;;17.20;54.80;;;;;;2280109;62;30975;-73
2022/03/11 19:11:31;;;;;;;3.80;2.80;;;17.30;54.70;;;;;;2284950;62;30650;-72
2022/03/11 19:13:58;;;;;;;4.10;3.10;;;17.30;54.80;;;;;;2279540;62;30210;-73
2022/03/11 19:16:24;;;;;;;5.20;2.80;;;17.40;54.70;;;;;;2284021;62;30156;-73
2022/03/11 19:18:50;;;;;;;4.38;2.60;;;17.40;54.70;;;;;;2277361;62;30984;-72
2022/03/11 19:21:16;;;;;;;2.28;2.10;;;17.40;54.80;;;;;;2284994;62;30822;-73
2022/03/11 19:23:42;;;;;;;2.67;2.40;;;17.40;54.70;;;;;;2285162;62;30260;-72
2022/03/11 19:26:09;;;;;;;2.72;2.42;;;17.40;54.50;;;;;;2284410;62;30292;-72
2022/03/11 19:28:35;;;;;;;2.40;2.20;;;17.40;54.60;;;;;;2270948;62;30833;-72
2022/03/11 19:31:02;;;;;;;2.60;2.40;;;17.50;54.60;;;;;;2277700;62;30841;-73
2022/03/11 19:33:31;;;;;;;3.08;2.67;;;17.50;54.70;;;;;;2276485;62;30266;-73
2022/03/11 19:35:59;;;;;;;5.97;2.90;;;17.50;54.70;;;;;;2276176;62;30151;-73
2022/03/11 19:38:25;;;;;;;3.80;3.20;;;17.50;54.80;;;;;;2277556;62;30289;-73
2022/03/11 19:40:58;;;;;;;3.40;2.90;;;17.50;54.80;;;;;;2278384;62;31906;-73
2022/03/11 19:43:24;;;;;;;4.18;3.10;;;17.50;54.90;;;;;;2285076;62;30153;-73
2022/03/11 19:45:53;;;;;;;3.60;3.30;;;17.50;54.80;;;;;;2276108;62;30166;-74
2022/03/11 19:48:19;;;;;;;3.17;2.88;;;17.50;54.70;;;;;;2276741;62;30812;-74
2022/03/11 19:50:45;;;;;;;3.17;2.88;;;17.50;54.80;;;;;;2276734;62;30178;-75
2022/03/11 19:53:12;;;;;;;3.78;3.13;;;17.50;55.00;;;;;;2276500;62;30142;-74
2022/03/11 19:55:44;;;;;;;3.42;3.13;;;17.50;55.00;;;;;;2276272;62;30418;-80
2022/03/11 19:58:10;;;;;;;2.88;2.67;;;17.50;55.20;;;;;;2276794;62;30072;-72
2022/03/11 20:00:36;;;;;;;2.67;2.45;;;17.50;55.10;;;;;;2276329;62;30273;-74
2022/03/11 20:03:02;;;;;;;5.65;3.20;;;17.50;55.00;;;;;;2269414;62;30168;-73
2022/03/11 20:05:28;;;;;;;2.70;2.50;;;17.50;55.10;;;;;;2270685;62;31720;-73
2022/03/11 20:08:05;;;;;;;2.60;2.40;;;17.50;55.20;;;;;;2276222;62;30062;-74
2022/03/11 20:10:33;;;;;;;2.95;2.40;;;17.50;55.30;;;;;;2276778;62;31170;-74
2022/03/11 20:13:01;;;;;;;3.38;2.63;;;17.50;55.20;;;;;;2276725;62;30174;-73
2022/03/11 20:15:28;;;;;;;2.72;2.50;;;17.50;55.20;;;;;;2272848;62;30346;-73
2022/03/11 20:17:54;;;;;;;2.45;2.25;;;17.50;55.30;;;;;;2276442;62;31877;-73
2022/03/11 20:20:21;;;;;;;3.80;2.60;;;17.50;55.30;;;;;;2276619;62;30897;-73
2022/03/11 20:22:47;;;;;;;3.60;2.50;;;17.50;55.30;;;;;;2275813;62;30427;-73
2022/03/11 20:25:16;;;;;;;2.50;2.30;;;17.50;55.30;;;;;;2276638;62;30082;-73
2022/03/11 20:27:43;;;;;;;2.75;2.28;;;17.50;55.40;;;;;;2275448;62;30246;-73
2022/03/11 20:30:14;;;;;;;2.08;1.95;;;17.50;55.60;;;;;;2272525;62;30644;-72
2022/03/11 20:32:40;;;;;;;3.50;2.20;;;17.50;55.70;;;;;;2270835;62;31561;-73
2022/03/11 20:35:07;;;;;;;2.65;2.45;;;17.50;55.70;;;;;;2271438;62;30135;-75
2022/03/11 20:37:33;;;;;;;4.45;2.33;;;17.50;55.70;;;;;;2275622;62;30108;-75
2022/03/11 20:39:59;;;;;;;8.88;2.88;;;17.50;55.80;;;;;;2276398;62;30410;-70
2022/03/11 20:42:25;;;;;;;2.58;2.35;;;17.50;55.80;;;;;;2275794;62;30024;-68
2022/03/11 20:44:51;;;;;;;3.55;2.40;;;17.50;55.80;;;;;;2278631;62;30235;-69
2022/03/11 20:47:17;;;;;;;2.40;2.20;;;17.60;55.80;;;;;;2277444;62;30334;-69
2022/03/11 20:49:45;;;;;;;2.65;2.45;;;17.60;55.80;;;;;;2284398;62;30270;-69
2022/03/11 20:52:11;;;;;;;3.85;2.47;;;17.70;55.70;;;;;;2284769;62;30110;-70
2022/03/11 20:54:37;;;;;;;2.97;2.67;;;17.70;55.60;;;;;;2283137;62;29944;-71
2022/03/11 20:57:05;;;;;;;2.20;2.00;;;17.80;55.60;;;;;;2270276;62;30818;-71
2022/03/11 20:59:34;;;;;;;2.63;2.28;;;17.90;55.50;;;;;;2275331;62;31110;-71
2022/03/11 21:02:01;;;;;;;2.15;1.95;;;17.90;55.50;;;;;;2268006;62;30561;-71
2022/03/11 21:04:27;;;;;;;2.55;2.35;;;17.90;55.50;;;;;;2273668;62;30037;-71
2022/03/11 21:06:53;;;;;;;2.47;2.28;;;18.00;55.60;;;;;;2274643;62;30522;-70
2022/03/11 21:09:19;;;;;;;2.40;2.10;;;18.00;55.50;;;;;;2275078;62;30771;-70
2022/03/11 21:11:46;;;;;;;2.40;2.20;;;18.00;55.60;;;;;;2275033;62;30268;-71
2022/03/11 21:14:15;;;;;;;2.45;2.25;;;18.00;55.60;;;;;;2269363;62;30476;-71
2022/03/11 21:16:41;;;;;;;3.13;2.30;;;18.00;55.50;;;;;;2280662;62;31535;-73
2022/03/11 21:19:12;;;;;;;1.90;1.80;;;18.00;55.50;;;;;;2273680;62;30580;-73
2022/03/11 21:21:41;;;;;;;2.42;2.22;;;18.00;55.60;;;;;;2274298;62;29937;-72
2022/03/11 21:24:08;;;;;;;2.10;1.90;;;18.10;55.60;;;;;;2275266;62;30834;-72
2022/03/11 21:26:35;;;;;;;2.00;1.90;;;18.10;55.60;;;;;;2267640;62;30146;-76
2022/03/11 21:29:03;;;;;;;2.17;2.08;;;18.10;55.70;;;;;;2274847;62;30708;-75
2022/03/11 21:31:30;;;;;;;2.30;2.10;;;18.10;55.70;;;;;;2275228;62;30633;-74
2022/03/11 21:33:56;;;;;;;2.30;2.10;;;18.00;55.70;;;;;;2267811;62;30435;-71
2022/03/11 21:36:22;;;;;;;2.20;2.03;;;18.10;55.90;;;;;;2282899;62;30031;-73
2022/03/11 21:38:48;;;;;;;2.28;2.08;;;18.10;55.90;;;;;;2275749;62;30700;-72
2022/03/11 21:41:15;;;;;;;2.85;2.13;;;18.10;55.90;;;;;;2283389;62;30073;-71
2022/03/11 21:43:45;;;;;;;2.10;1.90;;;18.10;55.70;;;;;;2275800;62;30614;-72
2022/03/11 21:46:11;;;;;;;2.15;2.05;;;18.10;55.80;;;;;;2269201;62;30698;-70
2022/03/11 21:48:38;;;;;;;2.13;2.03;;;18.10;55.90;;;;;;2283203;62;30164;-71
2022/03/11 21:51:05;;;;;;;2.13;2.03;;;18.10;55.90;;;;;;2283191;62;30192;-70
2022/03/11 21:53:31;;;;;;;2.40;2.03;;;18.10;56.00;;;;;;2282613;62;30261;-70
2022/03/11 21:55:57;;;;;;;2.20;2.00;;;18.10;55.90;;;;;;2283050;62;30148;-72
2022/03/11 21:58:24;;;;;;;2.20;2.00;;;18.10;56.00;;;;;;2275634;62;31996;-71
2022/03/11 22:00:51;;;;;;;2.50;2.30;;;18.10;56.00;;;;;;2275168;62;30101;-70
2022/03/11 22:03:17;;;;;;;2.20;2.10;;;18.10;56.00;;;;;;2274858;62;30098;-71
2022/03/11 22:05:45;;;;;;;2.00;1.90;;;18.10;56.00;;;;;;2274118;62;31070;-71
2022/03/11 22:08:11;;;;;;;3.65;1.90;;;18.10;56.10;;;;;;2268189;62;31421;-71
2022/03/11 22:10:37;;;;;;;1.83;1.73;;;18.10;56.00;;;;;;2276143;62;30248;-71
2022/03/11 22:13:04;;;;;;;2.33;2.00;;;18.10;56.10;;;;;;2275664;62;30203;-72
2022/03/11 22:15:30;;;;;;;2.20;2.00;;;18.10;56.00;;;;;;2277185;62;31788;-72
2022/03/11 22:17:56;;;;;;;2.92;2.03;;;18.10;56.10;;;;;;2284344;62;31727;-71
2022/03/11 22:20:25;;;;;;;2.30;2.10;;;18.10;56.10;;;;;;2277019;62;30348;-71
2022/03/11 22:22:51;;;;;;;3.50;2.03;;;18.10;56.20;;;;;;2280991;62;30206;-74
2022/03/11 22:25:17;;;;;;;1.88;1.75;;;18.10;56.10;;;;;;2278097;62;30944;-74
2022/03/11 22:27:43;;;;;;;2.33;2.10;;;18.10;56.10;;;;;;2277258;62;30092;-73
2022/03/11 22:30:10;;;;;;;2.25;2.05;;;18.10;56.20;;;;;;2275511;62;30124;-71
2022/03/11 22:32:36;;;;;;;2.28;2.08;;;18.10;56.20;;;;;;2275602;62;30203;-72
2022/03/11 22:35:02;;;;;;;2.42;2.22;;;18.10;56.10;;;;;;2268431;62;30561;-73
2022/03/11 22:37:28;;;;;;;2.20;2.10;;;18.10;56.10;;;;;;2268621;62;30204;-73
2022/03/11 22:39:54;;;;;;;2.05;1.90;;;18.10;56.00;;;;;;2279942;62;30189;-74
2022/03/11 22:42:20;;;;;;;2.00;1.90;;;18.20;56.00;;;;;;2276497;62;30280;-74
2022/03/11 22:44:46;;;;;;;2.30;2.10;;;18.20;56.00;;;;;;2276720;62;30173;-74
2022/03/11 22:47:12;;;;;;;2.20;2.00;;;18.20;56.00;;;;;;2276684;62;30165;-74
2022/03/11 22:49:39;;;;;;;2.00;1.90;;;18.20;56.00;;;;;;2284023;62;30080;-72
2022/03/11 22:52:07;;;;;;;2.25;2.05;;;18.20;56.10;;;;;;2270093;62;30219;-72
2022/03/11 22:54:36;;;;;;;3.70;1.88;;;18.20;56.00;;;;;;2284086;62;30894;-73
2022/03/11 22:57:06;;;;;;;2.30;2.00;;;18.20;56.10;;;;;;2276546;62;30066;-70
2022/03/11 22:59:36;;;;;;;2.33;2.10;;;18.20;56.10;;;;;;2283948;62;30541;-71
2022/03/11 23:04:46;;;;;;;2.20;2.00;;;18.20;56.10;;;;;;2277282;62;30939;-73
2022/03/11 23:09:57;;;;;;;2.00;1.90;;;18.20;56.20;;;;;;2276066;62;30070;-73
2022/03/11 23:12:23;;;;;;;3.25;2.17;;;18.20;56.20;;;;;;2275828;62;30087;-74
2022/03/11 23:14:50;;;;;;;2.42;2.22;;;18.20;56.20;;;;;;2275728;62;30927;-73
2022/03/11 23:17:21;;;;;;;1.98;1.88;;;18.20;56.20;;;;;;2275383;62;30606;-73
2022/03/11 23:19:47;;;;;;;2.58;2.20;;;18.20;56.30;;;;;;2275897;62;30222;-73
2022/03/11 23:22:13;;;;;;;2.10;1.90;;;18.20;56.30;;;;;;2276596;62;30239;-72
